Time;durP1;ratioP1;P1;durP2;ratioP2;P2;SDS_P1;SDS_P2;PMS_P1;PMS_P2;Temp;Humidity;BMP_temperature;BMP_pressure;BME280_temperature;BME280_humidity;BME280_pressure;Samples;Min_cycle;Max_cycle;Signal;HPM_P1;HPM_P2
2021/06/09 00:00:47;;;;;;;33.70;30.40;;;17.80;99.90;;;;;;4890762;29;20659;-81
2021/06/09 00:03:13;;;;;;;30.17;27.17;;;17.70;99.90;;;;;;4885100;29;20553;-82
2021/06/09 00:05:40;;;;;;;31.40;28.33;;;17.60;99.90;;;;;;4885569;29;21043;-81
2021/06/09 00:08:06;;;;;;;33.77;30.40;;;17.60;99.90;;;;;;4885524;29;20585;-82
2021/06/09 00:10:33;;;;;;;31.90;28.67;;;17.60;99.90;;;;;;4885523;29;20465;-82
2021/06/09 00:13:01;;;;;;;34.13;30.73;;;17.60;99.90;;;;;;4884513;29;20467;-84
2021/06/09 00:15:27;;;;;;;33.93;30.53;;;17.50;99.90;;;;;;4885311;29;20533;-81
2021/06/09 00:17:54;;;;;;;31.63;28.33;;;17.50;99.90;;;;;;4884955;29;20865;-81
2021/06/09 00:20:22;;;;;;;33.43;30.23;;;17.50;99.90;;;;;;4884663;29;20457;-81
2021/06/09 00:22:49;;;;;;;29.93;27.20;;;17.40;99.90;;;;;;4884456;29;20831;-81
2021/06/09 00:25:16;;;;;;;31.90;28.73;;;17.40;99.90;;;;;;4884908;29;20541;-81
2021/06/09 00:27:44;;;;;;;30.13;27.40;;;17.30;99.90;;;;;;4884640;29;20503;-81
2021/06/09 00:30:16;;;;;;;31.90;28.73;;;17.30;99.90;;;;;;4884780;29;20461;-82
2021/06/09 00:32:43;;;;;;;31.37;28.07;;;17.20;99.90;;;;;;4885182;29;20543;-81
2021/06/09 00:35:10;;;;;;;29.27;26.40;;;17.20;99.90;;;;;;4884886;29;20482;-82
2021/06/09 00:37:37;;;;;;;28.60;26.00;;;17.10;99.90;;;;;;4884425;29;20887;-82
2021/06/09 00:40:04;;;;;;;27.67;25.13;;;17.10;99.90;;;;;;4885372;29;20827;-82
2021/06/09 00:42:31;;;;;;;30.77;27.53;;;17.10;99.90;;;;;;4884543;29;20449;-81
2021/06/09 00:44:57;;;;;;;28.87;25.97;;;17.10;99.90;;;;;;4884418;29;20481;-81
2021/06/09 00:47:27;;;;;;;29.43;26.73;;;17.00;99.90;;;;;;4885171;29;20912;-80
2021/06/09 00:49:53;;;;;;;28.90;26.00;;;17.00;99.90;;;;;;4885437;29;20512;-83
2021/06/09 00:52:23;;;;;;;32.00;29.13;;;17.00;99.90;;;;;;4884483;29;20465;-81
2021/06/09 00:54:49;;;;;;;29.03;26.30;;;17.00;99.90;;;;;;4885085;29;20979;-81
2021/06/09 00:57:16;;;;;;;29.60;26.80;;;17.00;99.90;;;;;;4885154;29;21082;-81
2021/06/09 00:59:42;;;;;;;29.23;26.37;;;17.00;99.90;;;;;;4884794;29;20598;-81
2021/06/09 01:02:09;;;;;;;32.53;29.10;;;16.80;99.90;;;;;;4884419;29;20811;-81
2021/06/09 01:04:37;;;;;;;34.13;30.70;;;16.70;99.90;;;;;;4884565;29;20504;-81
2021/06/09 01:07:04;;;;;;;30.27;27.57;;;16.70;99.90;;;;;;4885393;29;20465;-82
2021/06/09 01:09:30;;;;;;;32.27;29.20;;;16.70;99.90;;;;;;4885082;29;20492;-81
2021/06/09 01:11:57;;;;;;;30.50;27.50;;;16.70;99.90;;;;;;4885113;29;20461;-81
2021/06/09 01:14:25;;;;;;;29.13;26.43;;;16.70;99.90;;;;;;4884558;29;20484;-82
2021/06/09 01:16:51;;;;;;;32.13;29.03;;;16.70;99.90;;;;;;4884812;29;20484;-81
2021/06/09 01:19:18;;;;;;;31.63;28.67;;;16.50;99.90;;;;;;4884333;29;20457;-82
2021/06/09 01:21:47;;;;;;;31.57;28.33;;;16.40;99.90;;;;;;4884013;29;20543;-81
2021/06/09 01:24:14;;;;;;;32.13;29.10;;;16.50;99.90;;;;;;4884225;29;20488;-82
2021/06/09 01:26:40;;;;;;;30.77;27.57;;;16.50;99.90;;;;;;4883697;29;20924;-82
2021/06/09 01:29:08;;;;;;;33.83;30.50;;;16.50;99.90;;;;;;4884080;29;20559;-82
2021/06/09 01:31:36;;;;;;;33.17;28.77;;;16.50;99.90;;;;;;4884405;29;20456;-82
2021/06/09 01:34:06;;;;;;;33.53;30.20;;;16.50;99.90;;;;;;4884429;29;20461;-81
2021/06/09 01:36:35;;;;;;;34.17;30.87;;;16.50;99.90;;;;;;4884595;29;21018;-81
2021/06/09 01:39:09;;;;;;;35.10;31.50;;;16.40;99.90;;;;;;4884341;29;20464;-81
2021/06/09 02:44:53;;;;;;;30.70;27.67;;;16.80;99.90;;;;;;4844380;29;20470;-85
2021/06/09 02:48:20;;;;;;;30.13;27.13;;;16.80;99.90;;;;;;4788012;30;20473;-86
2021/06/09 03:01:13;;;;;;;30.57;27.47;;;16.80;99.90;;;;;;4788774;30;20596;-85
2021/06/09 03:06:56;;;;;;;29.90;27.00;;;16.60;99.90;;;;;;4802378;29;21203;-85
2021/06/09 03:09:28;;;;;;;31.23;28.33;;;16.60;99.90;;;;;;4846706;29;20554;-85
2021/06/09 03:11:58;;;;;;;29.50;26.60;;;16.70;99.90;;;;;;4846110;29;20503;-85
2021/06/09 03:17:19;;;;;;;31.53;28.37;;;16.80;99.90;;;;;;4847342;29;20449;-85
2021/06/09 03:19:53;;;;;;;30.13;27.03;;;16.80;99.90;;;;;;4846964;29;21005;-85
2021/06/09 03:22:28;;;;;;;30.10;27.10;;;16.80;99.90;;;;;;4847343;29;20459;-85
2021/06/09 03:24:57;;;;;;;30.13;27.23;;;16.80;99.90;;;;;;4847894;29;20463;-86
2021/06/09 03:27:30;;;;;;;28.70;25.90;;;16.90;99.90;;;;;;4847532;29;20467;-85
2021/06/09 03:30:03;;;;;;;31.27;28.37;;;16.90;99.90;;;;;;4847777;29;20516;-84
2021/06/09 03:32:33;;;;;;;31.03;27.70;;;16.90;99.90;;;;;;4847779;29;20538;-85
2021/06/09 03:35:04;;;;;;;30.10;27.20;;;16.90;99.90;;;;;;4847539;29;20464;-85
2021/06/09 03:37:35;;;;;;;29.63;26.40;;;17.00;99.90;;;;;;4848133;29;20481;-85
2021/06/09 03:40:05;;;;;;;28.77;25.97;;;16.90;99.90;;;;;;4848235;29;20480;-85
2021/06/09 03:42:34;;;;;;;29.60;26.50;;;16.80;99.90;;;;;;4847586;29;20485;-85
2021/06/09 03:45:04;;;;;;;30.10;27.00;;;16.80;99.90;;;;;;4848602;29;20458;-86
2021/06/09 03:47:32;;;;;;;25.83;23.33;;;16.80;99.90;;;;;;4847734;29;20496;-85
2021/06/09 03:50:00;;;;;;;29.47;26.50;;;16.80;99.90;;;;;;4847923;29;20515;-85
2021/06/09 03:52:27;;;;;;;29.10;26.20;;;16.90;99.90;;;;;;4847414;29;20462;-85
2021/06/09 03:54:57;;;;;;;29.47;26.60;;;16.90;99.90;;;;;;4847527;29;20462;-85
2021/06/09 03:57:25;;;;;;;28.57;25.67;;;16.90;99.90;;;;;;4848322;29;20549;-86
2021/06/09 03:59:52;;;;;;;32.40;29.17;;;17.00;99.90;;;;;;4847893;29;20478;-85
2021/06/09 04:02:21;;;;;;;31.73;28.63;;;17.00;99.90;;;;;;4847311;29;20462;-85
2021/06/09 04:04:51;;;;;;;31.37;28.40;;;17.00;99.90;;;;;;4847355;29;20470;-85
2021/06/09 04:07:22;;;;;;;28.80;26.20;;;17.10;99.90;;;;;;4846614;29;20465;-85
2021/06/09 04:09:50;;;;;;;27.60;24.60;;;17.00;99.90;;;;;;4847463;29;20510;-85
2021/06/09 04:12:18;;;;;;;26.40;23.90;;;17.10;99.90;;;;;;4847740;29;20454;-85
2021/06/09 04:14:47;;;;;;;27.13;24.60;;;17.10;99.90;;;;;;4847557;29;20460;-85
2021/06/09 04:17:18;;;;;;;26.10;23.77;;;17.10;99.90;;;;;;4847792;29;20464;-85
2021/06/09 04:19:48;;;;;;;27.33;24.70;;;17.20;99.90;;;;;;4847456;29;20454;-85
2021/06/09 04:22:15;;;;;;;31.37;28.30;;;17.20;99.90;;;;;;4846513;29;20458;-86
2021/06/09 04:24:41;;;;;;;27.50;24.93;;;17.20;99.90;;;;;;4846540;29;20680;-85
2021/06/09 04:27:10;;;;;;;28.90;26.10;;;17.20;99.90;;;;;;4846852;29;20461;-85
2021/06/09 04:29:38;;;;;;;25.97;23.47;;;17.20;99.90;;;;;;4847018;29;20497;-85
2021/06/09 04:32:06;;;;;;;28.33;25.63;;;17.30;99.90;;;;;;4847369;29;20459;-85
2021/06/09 04:34:43;;;;;;;32.60;23.23;;;17.30;99.90;;;;;;4847397;29;20462;-85
2021/06/09 04:37:12;;;;;;;25.33;23.07;;;17.30;99.90;;;;;;4846718;29;20468;-85
2021/06/09 04:39:39;;;;;;;30.60;27.80;;;17.40;99.90;;;;;;4846518;29;20461;-85
2021/06/09 04:42:05;;;;;;;26.10;23.53;;;17.40;99.90;;;;;;4845918;29;20455;-85
2021/06/09 04:44:33;;;;;;;26.80;24.07;;;17.40;99.90;;;;;;4845598;29;20463;-85
2021/06/09 04:47:00;;;;;;;25.60;23.30;;;17.50;99.90;;;;;;4845924;29;20466;-86
2021/06/09 04:49:31;;;;;;;23.67;21.67;;;17.50;99.90;;;;;;4845821;29;20867;-85
2021/06/09 04:51:59;;;;;;;24.43;22.10;;;17.50;99.90;;;;;;4845787;29;20463;-85
2021/06/09 04:54:26;;;;;;;22.50;20.43;;;17.50;99.90;;;;;;4846310;29;20456;-85
2021/06/09 04:56:53;;;;;;;23.00;21.00;;;17.60;99.90;;;;;;4846514;29;20467;-85
2021/06/09 04:59:19;;;;;;;21.97;19.77;;;17.60;99.90;;;;;;4846425;29;20463;-85
2021/06/09 05:01:45;;;;;;;21.50;19.50;;;17.60;99.90;;;;;;4849629;29;20490;-85
2021/06/09 05:04:12;;;;;;;24.67;22.37;;;17.70;99.90;;;;;;4847062;29;20523;-86
2021/06/09 05:06:39;;;;;;;23.73;21.57;;;17.80;99.90;;;;;;4844699;29;20464;-85
2021/06/09 05:09:07;;;;;;;23.50;21.20;;;17.80;99.90;;;;;;4846656;29;20529;-86
2021/06/09 05:11:39;;;;;;;22.93;20.67;;;17.80;99.90;;;;;;4846100;29;20488;-86
2021/06/09 05:14:10;;;;;;;25.53;23.10;;;17.80;99.90;;;;;;4844896;29;20819;-86
2021/06/09 05:16:39;;;;;;;27.00;24.40;;;17.80;99.90;;;;;;4846039;29;20467;-86
2021/06/09 05:19:07;;;;;;;29.07;25.90;;;17.80;99.90;;;;;;4846249;29;20464;-86
2021/06/09 05:21:35;;;;;;;24.90;22.50;;;17.80;99.90;;;;;;4845906;29;21026;-85
2021/06/09 05:24:03;;;;;;;25.77;23.17;;;17.80;99.90;;;;;;4846920;29;20642;-86
2021/06/09 05:26:31;;;;;;;24.10;21.90;;;17.90;99.90;;;;;;4846196;29;20544;-85
2021/06/09 05:29:03;;;;;;;24.87;22.67;;;17.90;99.90;;;;;;4845348;29;20497;-86
2021/06/09 05:31:31;;;;;;;24.60;22.33;;;17.90;99.90;;;;;;4844517;29;20480;-85
2021/06/09 05:34:00;;;;;;;23.40;21.30;;;18.00;99.90;;;;;;4845927;29;20562;-86
2021/06/09 05:36:27;;;;;;;24.00;21.60;;;18.00;99.90;;;;;;4845763;29;20474;-86
2021/06/09 05:38:54;;;;;;;24.30;22.03;;;18.10;99.90;;;;;;4845958;29;20470;-86
2021/06/09 05:41:24;;;;;;;23.67;21.67;;;18.20;99.90;;;;;;4846743;29;20547;-85
2021/06/09 05:43:50;;;;;;;22.50;20.43;;;18.20;99.90;;;;;;4845928;29;20496;-86
2021/06/09 05:46:19;;;;;;;24.23;21.97;;;18.30;99.90;;;;;;4845866;29;20464;-86
2021/06/09 05:48:46;;;;;;;27.20;24.60;;;18.30;99.90;;;;;;4845913;29;20531;-85
2021/06/09 05:51:14;;;;;;;24.57;22.40;;;18.40;99.90;;;;;;4846110;29;20490;-86
2021/06/09 05:53:42;;;;;;;25.40;23.00;;;18.40;99.90;;;;;;4846731;29;20475;-86
2021/06/09 05:56:08;;;;;;;23.67;21.67;;;18.50;99.90;;;;;;4846472;29;20465;-86
2021/06/09 05:58:35;;;;;;;25.97;23.50;;;18.50;99.90;;;;;;4848206;29;20458;-85
2021/06/09 06:01:03;;;;;;;22.77;20.43;;;18.40;99.90;;;;;;4848587;29;20509;-86
2021/06/09 06:03:31;;;;;;;22.40;20.47;;;18.40;99.90;;;;;;4848379;29;20858;-85
2021/06/09 06:05:59;;;;;;;24.37;21.97;;;18.40;99.90;;;;;;4848212;29;20465;-85
2021/06/09 06:08:34;;;;;;;22.13;20.23;;;18.50;99.90;;;;;;4846727;29;20492;-85
2021/06/09 06:11:05;;;;;;;26.63;24.13;;;18.50;99.90;;;;;;4840426;29;20586;-85
2021/06/09 06:13:31;;;;;;;22.80;20.90;;;18.50;99.90;;;;;;4841479;29;20470;-85
2021/06/09 06:15:58;;;;;;;22.17;20.07;;;18.60;99.90;;;;;;4841404;29;20501;-85
2021/06/09 06:18:33;;;;;;;24.07;21.67;;;18.60;99.90;;;;;;4841134;29;21036;-85
2021/06/09 06:20:59;;;;;;;23.13;20.90;;;18.60;99.90;;;;;;4841039;29;20568;-85
2021/06/09 06:23:26;;;;;;;21.13;19.33;;;18.60;99.90;;;;;;4840871;29;20460;-85
2021/06/09 06:25:53;;;;;;;21.57;19.83;;;18.70;99.90;;;;;;4841437;29;20464;-85
2021/06/09 06:28:19;;;;;;;21.43;19.27;;;18.70;99.90;;;;;;4844314;29;20488;-85
2021/06/09 06:30:46;;;;;;;22.23;19.90;;;18.70;99.90;;;;;;4844457;29;20488;-85
2021/06/09 06:33:15;;;;;;;22.03;19.97;;;18.80;99.90;;;;;;4846217;29;20496;-85
2021/06/09 06:35:45;;;;;;;22.37;20.20;;;18.80;99.90;;;;;;4848313;29;20466;-82
2021/06/09 06:38:13;;;;;;;23.23;21.03;;;18.80;99.90;;;;;;4849619;29;20852;-83
2021/06/09 06:40:40;;;;;;;19.87;18.10;;;18.70;99.90;;;;;;4849222;29;20533;-82
2021/06/09 06:43:06;;;;;;;20.77;19.03;;;18.70;99.90;;;;;;4848843;29;20966;-83
2021/06/09 06:45:33;;;;;;;19.93;17.97;;;18.70;99.90;;;;;;4848996;29;20830;-83
2021/06/09 06:47:59;;;;;;;23.20;21.10;;;18.70;99.90;;;;;;4850480;29;20498;-83
2021/06/09 06:50:26;;;;;;;22.60;20.70;;;18.90;99.90;;;;;;4850229;29;20498;-83
2021/06/09 06:52:55;;;;;;;22.07;19.97;;;18.90;99.90;;;;;;4852335;29;20502;-83
2021/06/09 06:55:23;;;;;;;21.10;19.30;;;19.00;99.90;;;;;;4855104;29;20460;-83
2021/06/09 06:57:50;;;;;;;21.53;19.73;;;19.00;99.90;;;;;;4856263;29;20476;-83
2021/06/09 07:00:19;;;;;;;23.10;21.10;;;19.10;99.90;;;;;;4858814;29;20461;-83
2021/06/09 07:02:48;;;;;;;20.13;18.43;;;19.20;99.90;;;;;;4857939;29;20449;-83
2021/06/09 07:05:16;;;;;;;22.07;20.00;;;19.20;99.90;;;;;;4857603;29;20454;-84
2021/06/09 07:07:43;;;;;;;25.20;22.60;;;19.20;99.90;;;;;;4855012;29;20455;-83
2021/06/09 07:10:13;;;;;;;20.07;18.37;;;19.20;99.90;;;;;;4867321;29;20506;-83
2021/06/09 07:12:41;;;;;;;22.07;20.17;;;19.40;99.90;;;;;;4866900;29;20828;-83
2021/06/09 07:15:11;;;;;;;21.47;19.47;;;19.40;99.90;;;;;;4867188;29;20464;-82
2021/06/09 07:17:40;;;;;;;20.67;18.77;;;19.60;99.90;;;;;;4866402;29;20460;-83
2021/06/09 07:20:09;;;;;;;22.67;20.57;;;19.70;99.90;;;;;;4867061;29;20826;-83
2021/06/09 07:22:35;;;;;;;20.60;18.13;;;19.90;99.90;;;;;;4867322;29;20465;-84
2021/06/09 07:25:01;;;;;;;19.70;18.03;;;20.10;99.90;;;;;;4868858;29;20521;-83
2021/06/09 07:27:33;;;;;;;21.60;19.60;;;20.20;99.90;;;;;;4867036;29;20466;-83
2021/06/09 07:30:00;;;;;;;21.23;19.23;;;20.40;99.90;;;;;;4865701;29;20567;-84
2021/06/09 07:32:27;;;;;;;21.90;20.00;;;20.40;99.90;;;;;;4864948;29;20465;-84
2021/06/09 07:34:54;;;;;;;21.07;19.37;;;20.60;99.90;;;;;;4865469;29;20457;-83
2021/06/09 07:37:21;;;;;;;21.30;19.40;;;20.60;99.90;;;;;;4864917;29;20853;-84
2021/06/09 07:40:25;;;;;;;19.30;17.60;;;20.80;99.90;;;;;;4890574;23;20813;-82
2021/06/09 07:42:57;;;;;;;21.90;19.93;;;21.00;99.90;;;;;;4864498;29;20497;-83
2021/06/09 07:45:25;;;;;;;20.93;19.20;;;21.10;99.90;;;;;;4866285;29;20461;-81
2021/06/09 07:47:52;;;;;;;21.57;19.63;;;21.20;99.90;;;;;;4866755;29;20454;-83
2021/06/09 07:50:24;;;;;;;21.87;19.87;;;21.30;99.90;;;;;;4866341;29;20549;-83
2021/06/09 07:52:51;;;;;;;21.30;19.50;;;21.30;99.90;;;;;;4866507;29;20453;-83
2021/06/09 07:55:17;;;;;;;20.27;18.57;;;21.50;99.90;;;;;;4866694;29;20460;-83
2021/06/09 07:57:46;;;;;;;22.47;20.63;;;21.60;99.90;;;;;;4865854;29;20474;-81
2021/06/09 08:00:15;;;;;;;20.93;19.23;;;21.70;99.90;;;;;;4865945;29;20500;-82
2021/06/09 08:02:42;;;;;;;21.37;19.67;;;21.70;99.90;;;;;;4866504;29;20524;-83
2021/06/09 08:05:11;;;;;;;21.53;19.70;;;21.60;99.90;;;;;;4866532;29;20465;-83
2021/06/09 08:07:37;;;;;;;21.07;19.17;;;21.50;99.90;;;;;;4866321;29;20880;-83
2021/06/09 08:10:07;;;;;;;22.43;20.50;;;21.40;99.90;;;;;;4866452;29;20561;-81
2021/06/09 08:12:34;;;;;;;22.77;20.67;;;21.40;99.90;;;;;;4865567;29;20912;-83
2021/06/09 08:15:01;;;;;;;21.23;19.40;;;21.40;99.90;;;;;;4866081;29;20518;-83
2021/06/09 08:17:28;;;;;;;21.60;19.70;;;21.60;99.90;;;;;;4866448;29;20476;-83
2021/06/09 08:19:55;;;;;;;19.23;17.60;;;21.70;99.90;;;;;;4867608;29;20465;-83
2021/06/09 08:22:22;;;;;;;22.20;20.30;;;21.80;99.90;;;;;;4866767;29;20459;-82
2021/06/09 08:24:49;;;;;;;21.47;19.37;;;21.90;99.90;;;;;;4866438;29;20462;-83
2021/06/09 08:27:16;;;;;;;21.17;19.47;;;21.80;99.90;;;;;;4866249;29;20492;-83
2021/06/09 08:29:43;;;;;;;20.67;18.97;;;21.80;99.90;;;;;;4866312;29;20547;-81
2021/06/09 08:32:09;;;;;;;21.00;19.20;;;21.80;99.90;;;;;;4865815;29;20463;-83
2021/06/09 08:34:36;;;;;;;20.23;18.63;;;21.90;99.90;;;;;;4865957;29;20463;-83
2021/06/09 08:37:03;;;;;;;19.07;17.57;;;22.00;99.90;;;;;;4865875;29;20462;-83
2021/06/09 08:39:29;;;;;;;20.30;18.30;;;22.10;99.90;;;;;;4848660;29;20457;-83
2021/06/09 08:41:56;;;;;;;20.33;18.63;;;22.30;99.90;;;;;;4865498;29;20478;-83
2021/06/09 08:44:24;;;;;;;22.33;20.43;;;22.40;99.90;;;;;;4865844;29;21038;-82
2021/06/09 08:46:53;;;;;;;20.73;19.07;;;22.40;99.90;;;;;;4865434;29;20464;-81
2021/06/09 08:49:21;;;;;;;22.30;20.30;;;22.50;99.90;;;;;;4864409;29;20566;-83
2021/06/09 08:51:50;;;;;;;20.13;18.40;;;22.50;99.90;;;;;;4865331;29;20486;-83
2021/06/09 08:54:16;;;;;;;20.87;19.07;;;22.60;99.90;;;;;;4865397;29;20461;-83
2021/06/09 08:56:43;;;;;;;20.80;19.00;;;22.60;99.90;;;;;;4865902;29;20829;-81
2021/06/09 08:59:09;;;;;;;22.43;20.57;;;22.60;99.90;;;;;;4865397;29;20463;-83
2021/06/09 09:01:36;;;;;;;22.17;20.27;;;22.60;99.90;;;;;;4865043;29;20482;-83
2021/06/09 09:04:04;;;;;;;23.63;21.63;;;22.80;99.90;;;;;;4865591;29;20453;-83
2021/06/09 09:06:30;;;;;;;22.93;20.83;;;22.90;99.90;;;;;;4865678;29;20462;-83
2021/06/09 09:08:58;;;;;;;22.57;20.77;;;23.10;99.90;;;;;;4865540;29;20494;-83
2021/06/09 09:11:24;;;;;;;21.23;19.47;;;23.30;99.90;;;;;;4865139;29;20487;-83
2021/06/09 09:13:51;;;;;;;20.23;18.63;;;23.40;99.90;;;;;;4865900;29;20471;-83
2021/06/09 09:16:18;;;;;;;21.87;20.00;;;23.60;99.90;;;;;;4864901;29;20464;-83
2021/06/09 09:18:47;;;;;;;21.23;19.30;;;23.80;99.90;;;;;;4864913;29;20469;-83
2021/06/09 09:21:31;;;;;;;24.33;22.27;;;23.90;99.90;;;;;;4865295;29;20561;-83
2021/06/09 09:23:59;;;;;;;21.80;19.90;;;24.00;99.90;;;;;;4866009;29;20462;-82
2021/06/09 09:26:28;;;;;;;20.27;18.67;;;24.10;99.90;;;;;;4865029;29;20467;-81
2021/06/09 09:29:08;;;;;;;23.40;21.43;;;24.20;99.90;;;;;;4865611;29;20861;-83
2021/06/09 09:31:49;;;;;;;22.87;20.77;;;24.30;99.90;;;;;;4864713;29;20999;-83
2021/06/09 09:34:36;;;;;;;21.97;20.20;;;24.40;99.90;;;;;;4865202;29;20472;-80
2021/06/09 09:37:14;;;;;;;21.27;19.47;;;24.40;99.90;;;;;;4865078;29;20464;-83
2021/06/09 09:39:45;;;;;;;21.17;19.27;;;24.50;99.90;;;;;;4864970;29;20453;-83
2021/06/09 09:42:19;;;;;;;20.43;18.93;;;24.60;99.90;;;;;;4865079;29;20826;-83
2021/06/09 09:44:46;;;;;;;20.70;19.00;;;24.50;99.90;;;;;;4865096;29;20453;-82
2021/06/09 09:47:15;;;;;;;23.40;21.40;;;24.60;99.90;;;;;;4865008;29;20461;-83
2021/06/09 09:49:42;;;;;;;20.37;18.57;;;24.60;99.90;;;;;;4865152;29;20489;-82
2021/06/09 09:52:09;;;;;;;19.10;17.63;;;24.70;99.90;;;;;;4864600;29;20466;-83
2021/06/09 09:54:37;;;;;;;22.30;20.50;;;24.70;99.90;;;;;;4865458;29;20457;-83
2021/06/09 09:57:07;;;;;;;21.60;19.87;;;24.80;99.90;;;;;;4864796;29;20887;-83
2021/06/09 09:59:33;;;;;;;22.20;20.20;;;24.90;99.90;;;;;;4864664;29;21041;-82
2021/06/09 10:02:02;;;;;;;23.13;21.20;;;25.00;99.90;;;;;;4866906;29;20486;-83
2021/06/09 10:04:31;;;;;;;24.00;21.90;;;24.90;99.90;;;;;;4868175;29;20500;-82
2021/06/09 10:06:58;;;;;;;22.20;20.20;;;24.80;99.90;;;;;;4868484;29;20640;-83
2021/06/09 10:09:27;;;;;;;20.40;18.80;;;24.80;99.90;;;;;;4868360;29;20493;-82
2021/06/09 10:11:54;;;;;;;21.17;19.27;;;24.80;99.90;;;;;;4867906;29;20521;-83
2021/06/09 10:14:24;;;;;;;23.23;20.90;;;25.00;99.90;;;;;;4868295;29;20503;-83
2021/06/09 10:16:58;;;;;;;21.73;20.03;;;25.20;99.90;;;;;;4868269;29;20459;-82
2021/06/09 10:19:28;;;;;;;22.20;20.33;;;25.40;99.90;;;;;;4868753;29;20532;-83
2021/06/09 10:21:57;;;;;;;19.80;18.30;;;25.50;99.30;;;;;;4868216;29;20486;-82
2021/06/09 10:24:26;;;;;;;23.33;21.07;;;25.60;99.40;;;;;;4868296;29;20462;-83
2021/06/09 10:26:54;;;;;;;20.37;18.77;;;25.70;98.40;;;;;;4867730;29;20552;-81
2021/06/09 10:29:23;;;;;;;22.40;20.27;;;25.60;98.10;;;;;;4868044;29;20587;-83
2021/06/09 10:31:55;;;;;;;20.40;18.90;;;25.70;98.30;;;;;;4867916;29;20521;-83
2021/06/09 10:34:23;;;;;;;19.97;18.30;;;25.90;98.90;;;;;;4867986;29;20473;-83
2021/06/09 10:36:50;;;;;;;20.60;19.00;;;26.20;99.50;;;;;;4868542;29;20463;-83
2021/06/09 10:39:18;;;;;;;20.27;18.47;;;26.50;99.20;;;;;;4868017;29;20513;-82
2021/06/09 10:41:48;;;;;;;18.70;17.30;;;26.60;97.90;;;;;;4867922;29;20487;-81
2021/06/09 10:44:17;;;;;;;21.57;19.87;;;26.90;99.10;;;;;;4885379;29;21160;-78
2021/06/09 10:46:48;;;;;;;18.57;17.17;;;27.20;97.90;;;;;;4886559;29;20498;-78
2021/06/09 10:49:16;;;;;;;19.50;17.90;;;27.50;97.50;;;;;;4882125;29;20493;-83
2021/06/09 10:51:44;;;;;;;23.27;21.17;;;27.90;96.80;;;;;;4867239;29;20525;-83
2021/06/09 10:54:13;;;;;;;25.27;23.13;;;28.20;97.20;;;;;;4867417;29;20462;-83
2021/06/09 10:56:41;;;;;;;24.67;22.50;;;28.50;96.40;;;;;;4867508;29;20462;-83
2021/06/09 10:59:07;;;;;;;23.83;21.93;;;28.60;96.00;;;;;;4867729;29;20526;-83
2021/06/09 11:01:34;;;;;;;18.40;16.80;;;28.80;96.90;;;;;;4867847;29;20485;-82
2021/06/09 11:04:03;;;;;;;19.87;18.23;;;28.80;93.00;;;;;;4867255;29;20518;-83
2021/06/09 11:06:41;;;;;;;20.50;19.00;;;28.80;93.00;;;;;;4867091;29;20554;-83
2021/06/09 11:09:12;;;;;;;18.13;16.67;;;28.90;92.40;;;;;;4867218;29;20493;-81
2021/06/09 11:11:39;;;;;;;18.20;16.73;;;29.00;91.60;;;;;;4866901;29;21025;-81
2021/06/09 11:14:19;;;;;;;17.67;16.47;;;29.10;92.70;;;;;;4867045;29;20512;-81
2021/06/09 11:16:48;;;;;;;17.67;16.30;;;29.50;93.70;;;;;;4867434;29;20475;-80
2021/06/09 11:19:32;;;;;;;16.27;15.07;;;30.10;91.00;;;;;;4867450;29;20486;-80
2021/06/09 11:22:17;;;;;;;15.87;14.57;;;30.60;86.70;;;;;;4866998;29;20494;-81
2021/06/09 11:25:09;;;;;;;14.13;12.97;;;30.80;85.90;;;;;;4867483;29;20492;-80
2021/06/09 11:27:36;;;;;;;14.67;13.57;;;31.10;83.70;;;;;;4867333;29;20466;-81
2021/06/09 11:30:42;;;;;;;14.10;13.07;;;31.40;82.00;;;;;;4867447;29;20500;-81
2021/06/09 11:33:10;;;;;;;17.43;16.23;;;31.30;76.90;;;;;;4866778;29;20469;-81
2021/06/09 11:35:47;;;;;;;17.90;16.50;;;31.40;80.40;;;;;;4867077;29;20462;-81
2021/06/09 11:38:21;;;;;;;17.67;16.37;;;31.30;80.10;;;;;;4866488;29;20494;-81
2021/06/09 11:40:49;;;;;;;16.87;15.77;;;30.80;79.90;;;;;;4866499;29;20688;-81
2021/06/09 11:43:17;;;;;;;17.07;15.87;;;30.60;81.90;;;;;;4866387;29;20463;-81
2021/06/09 11:45:51;;;;;;;18.13;16.83;;;30.60;80.60;;;;;;4866583;29;20462;-81
2021/06/09 11:48:20;;;;;;;18.30;17.00;;;30.90;77.80;;;;;;4866668;29;20458;-81
2021/06/09 11:50:50;;;;;;;19.50;18.10;;;31.00;77.40;;;;;;4866556;29;20557;-81
2021/06/09 11:53:36;;;;;;;16.93;15.73;;;31.30;78.40;;;;;;4866642;29;20476;-80
2021/06/09 11:56:16;;;;;;;14.53;13.63;;;31.70;76.70;;;;;;4866972;29;20474;-80
2021/06/09 11:58:44;;;;;;;16.07;14.83;;;31.80;74.50;;;;;;4867288;29;20528;-81
2021/06/09 12:01:12;;;;;;;15.30;14.23;;;32.00;73.00;;;;;;4865962;29;20486;-81
2021/06/09 12:03:40;;;;;;;14.93;13.83;;;32.00;71.40;;;;;;4865614;29;20461;-79
2021/06/09 12:06:17;;;;;;;15.80;14.67;;;32.20;74.20;;;;;;4866508;29;20462;-80
2021/06/09 12:08:44;;;;;;;14.00;13.10;;;32.30;71.20;;;;;;4866191;29;20497;-81
2021/06/09 12:11:11;;;;;;;16.03;14.93;;;32.80;72.30;;;;;;4866576;29;20472;-80
2021/06/09 12:13:37;;;;;;;15.83;14.73;;;33.00;69.00;;;;;;4866113;29;20454;-82
2021/06/09 12:16:10;;;;;;;14.90;13.90;;;32.60;67.80;;;;;;4866269;29;20451;-81
2021/06/09 12:18:36;;;;;;;13.97;12.97;;;32.20;68.80;;;;;;4866396;29;20451;-79
2021/06/09 12:21:09;;;;;;;14.57;13.57;;;31.80;70.80;;;;;;4865688;29;20483;-80
2021/06/09 12:23:37;;;;;;;16.17;15.03;;;31.30;72.10;;;;;;4865566;29;21023;-81
2021/06/09 12:26:04;;;;;;;17.23;16.00;;;30.20;78.40;;;;;;4865344;29;20457;-81
2021/06/09 12:28:31;;;;;;;16.53;15.23;;;29.30;81.30;;;;;;4866048;29;20463;-81
2021/06/09 12:30:59;;;;;;;17.17;15.77;;;28.60;84.30;;;;;;4865296;29;20506;-79
2021/06/09 12:33:37;;;;;;;17.97;16.07;;;28.30;86.50;;;;;;4864944;29;20473;-81
2021/06/09 12:36:08;;;;;;;17.43;16.20;;;28.30;87.30;;;;;;4865503;29;20465;-80
2021/06/09 12:38:37;;;;;;;16.93;15.73;;;28.70;85.50;;;;;;4865510;29;20453;-81
2021/06/09 12:41:04;;;;;;;14.20;13.30;;;29.30;85.40;;;;;;4865042;29;20571;-79
2021/06/09 12:43:30;;;;;;;15.50;14.30;;;30.10;85.90;;;;;;4865113;29;20464;-81
2021/06/09 12:45:57;;;;;;;16.27;15.27;;;31.10;79.70;;;;;;4865870;29;20841;-81
2021/06/09 12:48:25;;;;;;;14.87;13.57;;;31.60;78.20;;;;;;4865433;29;20468;-80
2021/06/09 12:50:52;;;;;;;15.13;14.03;;;32.10;75.30;;;;;;4865643;29;20508;-80
2021/06/09 12:53:20;;;;;;;14.57;13.40;;;32.70;75.80;;;;;;4865081;29;20954;-81
2021/06/09 12:55:49;;;;;;;13.47;12.57;;;33.20;72.00;;;;;;4865586;29;20463;-81
2021/06/09 12:58:20;;;;;;;13.60;12.80;;;33.40;67.30;;;;;;4865177;29;20810;-81
2021/06/09 13:00:47;;;;;;;13.90;12.90;;;33.40;66.50;;;;;;4865620;29;20523;-81
2021/06/09 13:03:26;;;;;;;13.60;12.67;;;33.30;65.30;;;;;;4865350;29;20466;-81
2021/06/09 13:06:03;;;;;;;13.43;12.53;;;33.30;66.20;;;;;;4865549;29;20528;-81
2021/06/09 13:08:32;;;;;;;13.13;12.33;;;33.60;64.40;;;;;;4865594;29;20579;-81
2021/06/09 13:11:06;;;;;;;10.30;9.70;;;33.70;62.00;;;;;;4865555;29;20513;-81
2021/06/09 13:13:33;;;;;;;10.33;9.53;;;33.90;60.40;;;;;;4864772;29;20464;-81
2021/06/09 13:16:01;;;;;;;11.47;10.77;;;34.10;59.50;;;;;;4865621;29;20550;-81
2021/06/09 13:18:39;;;;;;;10.77;10.17;;;34.00;59.10;;;;;;4865738;29;20494;-81
2021/06/09 13:21:18;;;;;;;12.40;11.57;;;33.30;59.30;;;;;;4865228;29;20476;-81
2021/06/09 13:23:45;;;;;;;11.23;10.53;;;32.50;60.80;;;;;;4865206;29;20789;-81
2021/06/09 13:26:15;;;;;;;12.43;11.63;;;31.40;60.90;;;;;;4865425;29;20458;-81
2021/06/09 13:28:42;;;;;;;10.40;9.70;;;30.80;63.20;;;;;;4865323;29;20438;-81
2021/06/09 13:31:08;;;;;;;10.30;9.50;;;30.50;65.30;;;;;;4864773;29;20500;-80
2021/06/09 13:33:36;;;;;;;11.03;10.17;;;30.10;66.40;;;;;;4864828;29;20468;-81
2021/06/09 13:36:03;;;;;;;11.80;11.00;;;30.10;71.90;;;;;;4868067;29;20615;-79
2021/06/09 13:38:30;;;;;;;12.43;11.63;;;30.50;72.40;;;;;;4871392;29;20526;-81
2021/06/09 13:40:57;;;;;;;12.70;11.80;;;31.00;74.40;;;;;;4872392;29;20485;-80
2021/06/09 13:43:25;;;;;;;13.60;12.70;;;31.50;70.10;;;;;;4872923;29;20467;-81
2021/06/09 13:45:56;;;;;;;11.87;11.10;;;31.90;70.00;;;;;;4873152;29;20492;-82
2021/06/09 13:48:24;;;;;;;12.63;11.83;;;32.20;68.60;;;;;;4873577;29;20459;-80
2021/06/09 13:50:56;;;;;;;11.00;10.20;;;32.10;66.70;;;;;;4872856;29;20551;-79
2021/06/09 13:53:23;;;;;;;11.60;10.70;;;31.80;65.80;;;;;;4872454;29;21023;-81
2021/06/09 13:55:50;;;;;;;10.90;10.10;;;31.40;66.40;;;;;;4873501;29;20462;-82
2021/06/09 13:58:21;;;;;;;9.43;8.80;;;30.60;67.30;;;;;;4873606;29;20457;-82